createdAt,value
2022-10-22T00:00:38.266Z,6.97
2022-10-22T00:03:06.654Z,6.65
2022-10-22T00:05:35.075Z,7.15
2022-10-22T00:08:04.030Z,7.53
2022-10-22T00:10:32.455Z,7.13
2022-10-22T00:13:00.818Z,7.00
2022-10-22T00:15:29.613Z,7.25
2022-10-22T00:17:57.988Z,7.60
2022-10-22T00:20:26.336Z,7.20
2022-10-22T00:22:57.031Z,7.88
2022-10-22T00:25:25.328Z,8.07
2022-10-22T00:27:53.734Z,8.23
2022-10-22T00:30:22.116Z,7.95
2022-10-22T00:32:50.638Z,7.72
2022-10-22T00:35:18.981Z,7.97
2022-10-22T00:37:51.287Z,8.00
2022-10-22T00:40:19.697Z,7.57
2022-10-22T00:42:48.075Z,8.07
2022-10-22T00:45:26.537Z,8.13
2022-10-22T00:48:02.274Z,8.13
2022-10-22T00:50:34.378Z,8.07
2022-10-22T00:53:04.037Z,8.23
2022-10-22T00:55:33.365Z,7.50
2022-10-22T00:58:02.589Z,7.22
2022-10-22T01:00:31.238Z,8.07
2022-10-22T01:02:59.985Z,7.80
2022-10-22T01:05:29.797Z,7.65
2022-10-22T01:07:58.273Z,8.15
2022-10-22T01:10:41.672Z,7.60
2022-10-22T01:13:18.162Z,7.57
2022-10-22T01:16:19.917Z,8.27
2022-10-22T01:18:48.317Z,8.30
2022-10-22T01:21:19.847Z,8.93
2022-10-22T01:23:53.066Z,8.20
2022-10-22T01:26:31.031Z,9.00
2022-10-22T01:28:59.373Z,8.32
2022-10-22T01:31:31.069Z,8.35
2022-10-22T01:34:01.598Z,8.65
2022-10-22T01:36:32.358Z,8.85
2022-10-22T01:39:02.295Z,8.65
2022-10-22T01:41:41.824Z,9.73
2022-10-22T01:44:23.215Z,9.18
2022-10-22T01:46:53.891Z,10.98
2022-10-22T01:49:38.299Z,10.60
2022-10-22T01:52:14.931Z,9.32
2022-10-22T01:54:51.025Z,9.20
2022-10-22T02:00:28.597Z,11.02
2022-10-22T02:03:04.555Z,10.93
2022-10-22T02:05:39.116Z,11.45
2022-10-22T02:08:11.888Z,11.18
2022-10-22T02:10:41.741Z,13.18
2022-10-22T02:13:12.165Z,10.20
2022-10-22T02:15:40.765Z,10.88
2022-10-22T02:18:20.662Z,9.82
2022-10-22T02:20:49.246Z,9.73
2022-10-22T02:23:17.712Z,10.02
2022-10-22T02:25:48.591Z,9.82
2022-10-22T02:28:30.155Z,9.40
2022-10-22T02:31:04.584Z,9.55
2022-10-22T02:33:46.696Z,9.50
2022-10-22T02:36:15.971Z,9.80
2022-10-22T02:38:56.161Z,9.83
2022-10-22T02:41:25.061Z,10.30
2022-10-22T02:43:56.854Z,13.70
2022-10-22T02:46:26.327Z,10.23
2022-10-22T02:49:00.980Z,8.56
2022-10-22T02:51:29.390Z,9.25
2022-10-22T02:53:57.941Z,7.30
2022-10-22T02:56:26.338Z,8.68
2022-10-22T02:58:54.741Z,9.15
2022-10-22T03:01:23.598Z,8.10
2022-10-22T03:03:56.237Z,7.07
2022-10-22T03:08:53.989Z,8.18
2022-10-22T03:11:22.519Z,9.15
2022-10-22T03:13:50.938Z,10.55
2022-10-22T03:16:19.341Z,9.52
2022-10-22T03:18:47.784Z,13.05
2022-10-22T03:21:24.759Z,19.85
2022-10-22T03:23:53.322Z,11.18
2022-10-22T03:26:22.176Z,13.43
2022-10-22T03:28:50.623Z,12.23
2022-10-22T03:31:24.137Z,11.50
2022-10-22T03:33:52.523Z,15.50
2022-10-22T03:36:21.601Z,17.23
2022-10-22T03:38:50.144Z,12.10
2022-10-22T03:41:18.508Z,14.32
2022-10-22T03:43:53.188Z,12.25
2022-10-22T03:46:21.520Z,12.13
2022-10-22T03:48:49.826Z,11.55
2022-10-22T03:51:28.468Z,11.48
2022-10-22T03:53:56.840Z,10.02
2022-10-22T03:56:25.354Z,10.20
2022-10-22T03:58:56.030Z,9.90
2022-10-22T04:01:24.988Z,9.98
2022-10-22T04:03:53.563Z,9.90
2022-10-22T04:06:21.915Z,11.82
2022-10-22T04:08:51.726Z,12.88
2022-10-22T04:11:20.049Z,14.05
2022-10-22T04:13:48.515Z,15.48
2022-10-22T04:16:18.829Z,13.63
2022-10-22T04:18:47.872Z,14.38
2022-10-22T04:21:17.031Z,15.75
2022-10-22T04:23:49.450Z,17.50
2022-10-22T04:26:27.829Z,14.10
2022-10-22T04:28:56.198Z,13.50
2022-10-22T04:31:35.293Z,15.10
2022-10-22T04:34:04.986Z,15.20
2022-10-22T04:36:34.670Z,18.08
2022-10-22T04:39:04.637Z,73.65
2022-10-22T04:41:34.840Z,13.25
2022-10-22T04:44:03.738Z,12.68
2022-10-22T04:46:33.288Z,12.25
2022-10-22T04:49:04.208Z,17.42
2022-10-22T04:51:32.944Z,18.15
2022-10-22T04:54:02.979Z,17.88
2022-10-22T04:56:32.328Z,12.25
2022-10-22T04:59:02.205Z,28.65
2022-10-22T05:01:35.759Z,38.83
2022-10-22T05:04:07.870Z,18.85
2022-10-22T05:06:37.099Z,9.68
2022-10-22T05:09:07.215Z,9.18
2022-10-22T05:11:36.804Z,10.93
2022-10-22T05:14:13.718Z,10.52
2022-10-22T05:16:42.740Z,10.55
2022-10-22T05:19:15.126Z,8.82
2022-10-22T05:21:43.462Z,24.25
2022-10-22T05:24:11.900Z,45.97
2022-10-22T05:26:40.547Z,9.43
2022-10-22T05:29:09.024Z,9.45
2022-10-22T05:31:37.451Z,12.80
2022-10-22T05:34:05.933Z,24.60
2022-10-22T05:36:34.333Z,47.53
2022-10-22T05:39:02.825Z,9.93
2022-10-22T05:41:31.477Z,9.95
2022-10-22T05:44:01.511Z,49.53
2022-10-22T05:46:33.754Z,13.02
2022-10-22T05:49:07.284Z,12.63
2022-10-22T05:51:36.907Z,12.15
2022-10-22T05:54:08.962Z,18.17
2022-10-22T05:56:37.868Z,13.75
2022-10-22T05:59:06.218Z,13.85
2022-10-22T06:01:37.866Z,9.50
2022-10-22T06:04:08.039Z,13.90
2022-10-22T06:06:36.708Z,10.07
2022-10-22T06:09:17.011Z,11.35
2022-10-22T06:11:46.741Z,10.27
2022-10-22T06:14:15.344Z,11.15
2022-10-22T06:16:44.000Z,10.38
2022-10-22T06:19:14.884Z,11.77
2022-10-22T06:21:50.654Z,10.00
2022-10-22T06:24:19.268Z,24.73
2022-10-22T06:26:50.247Z,70.70
2022-10-22T06:29:18.829Z,22.88
2022-10-22T06:31:47.171Z,13.50
2022-10-22T06:34:16.511Z,35.55
2022-10-22T06:36:49.907Z,13.27
2022-10-22T06:39:19.842Z,11.38
2022-10-22T06:41:48.301Z,34.22
2022-10-22T06:44:19.527Z,7.47
2022-10-22T06:46:50.100Z,9.45
2022-10-22T06:49:19.278Z,15.35
2022-10-22T06:51:50.758Z,12.35
2022-10-22T06:54:19.442Z,10.90
2022-10-22T06:56:49.744Z,11.23
2022-10-22T06:59:18.104Z,12.57
2022-10-22T07:01:46.596Z,9.45
2022-10-22T07:04:15.751Z,8.73
2022-10-22T07:06:46.011Z,9.75
2022-10-22T07:09:14.706Z,9.43
2022-10-22T07:11:45.661Z,9.07
2022-10-22T07:14:15.277Z,9.57
2022-10-22T07:16:43.719Z,8.20
2022-10-22T07:19:12.062Z,8.27
2022-10-22T07:21:40.615Z,7.88
2022-10-22T07:24:09.558Z,16.60
2022-10-22T07:26:38.099Z,9.15
2022-10-22T07:29:06.753Z,10.90
2022-10-22T07:31:36.654Z,12.36
2022-10-22T07:34:06.164Z,10.40
2022-10-22T07:36:36.001Z,8.00
2022-10-22T07:39:04.605Z,7.10
2022-10-22T07:41:36.418Z,9.13
2022-10-22T07:44:04.988Z,6.30
2022-10-22T07:46:35.580Z,8.80
2022-10-22T07:49:04.727Z,8.48
2022-10-22T07:51:33.181Z,8.10
2022-10-22T07:54:06.834Z,7.40
2022-10-22T07:56:35.259Z,8.15
2022-10-22T07:59:03.696Z,8.02
2022-10-22T08:01:32.184Z,7.78
2022-10-22T08:04:00.576Z,7.10
2022-10-22T08:06:30.001Z,6.50
2022-10-22T08:08:58.480Z,7.20
2022-10-22T08:11:27.393Z,7.45
2022-10-22T08:13:55.983Z,6.63
2022-10-22T08:16:24.412Z,7.00
2022-10-22T08:18:52.750Z,6.43
2022-10-22T08:21:21.119Z,5.88
2022-10-22T08:23:59.553Z,6.50
2022-10-22T08:26:28.006Z,7.80
2022-10-22T08:29:06.330Z,7.13
2022-10-22T08:31:34.997Z,7.15
2022-10-22T08:34:03.368Z,6.68
2022-10-22T08:36:32.121Z,8.05
2022-10-22T08:39:00.597Z,6.65
2022-10-22T08:41:47.491Z,6.35
2022-10-22T08:44:22.069Z,11.15
2022-10-22T08:47:02.082Z,13.90
2022-10-22T08:49:42.253Z,14.38
2022-10-22T08:52:15.930Z,9.35
2022-10-22T08:54:56.551Z,12.45
2022-10-22T08:57:44.940Z,9.82
2022-10-22T09:00:36.313Z,7.32
2022-10-22T09:03:10.406Z,10.20
2022-10-22T09:05:54.087Z,10.57
2022-10-22T09:08:23.241Z,10.10
2022-10-22T09:10:55.129Z,12.07
2022-10-22T09:13:24.239Z,14.25
2022-10-22T09:15:58.079Z,12.02
2022-10-22T09:18:48.144Z,14.95
2022-10-22T09:24:38.918Z,7.30
2022-10-22T09:27:18.234Z,8.25
2022-10-22T09:29:47.589Z,11.85
2022-10-22T09:32:17.428Z,17.45
2022-10-22T09:34:46.412Z,19.25
2022-10-22T09:37:17.141Z,15.00
2022-10-22T09:39:47.370Z,8.20
2022-10-22T09:42:17.208Z,9.43
2022-10-22T09:44:50.877Z,9.70
2022-10-22T09:50:27.800Z,13.50
2022-10-22T09:56:10.144Z,10.05
2022-10-22T09:58:45.929Z,18.50
2022-10-22T10:01:22.993Z,9.95
2022-10-22T10:03:54.523Z,13.28
2022-10-22T10:06:31.856Z,9.02
2022-10-22T10:09:06.162Z,9.75
2022-10-22T10:11:43.223Z,10.70
2022-10-22T10:14:19.293Z,8.30
2022-10-22T10:16:50.809Z,11.50
2022-10-22T10:19:38.867Z,12.27
2022-10-22T10:22:07.198Z,8.27
2022-10-22T10:24:54.100Z,12.85
2022-10-22T10:27:34.667Z,28.67
2022-10-22T10:30:13.446Z,12.73
2022-10-22T10:32:49.220Z,14.80
2022-10-22T10:35:17.815Z,14.82
2022-10-22T10:37:59.082Z,15.43
2022-10-22T10:40:35.302Z,19.38
2022-10-22T10:46:45.674Z,23.20
2022-10-22T10:49:14.125Z,42.00
2022-10-22T10:52:01.463Z,39.20
2022-10-22T10:54:35.894Z,41.70
2022-10-22T10:57:21.226Z,39.92
2022-10-22T11:00:07.383Z,28.58
2022-10-22T11:02:49.653Z,38.10
2022-10-22T11:05:36.471Z,18.90
2022-10-22T11:10:36.788Z,22.50
2022-10-22T11:13:20.448Z,20.58
2022-10-22T11:16:00.158Z,17.08
2022-10-22T11:22:05.633Z,19.75
2022-10-22T11:24:46.450Z,20.40
2022-10-22T11:27:33.504Z,22.55
2022-10-22T11:30:18.952Z,25.95
2022-10-22T11:32:49.494Z,33.38
2022-10-22T11:35:26.010Z,24.73
2022-10-22T11:38:05.900Z,127.57
2022-10-22T11:40:45.925Z,39.60
2022-10-22T11:43:28.830Z,45.10
2022-10-22T11:46:09.770Z,34.85
2022-10-22T11:48:39.000Z,30.58
2022-10-22T11:51:27.330Z,27.15
2022-10-22T11:53:56.746Z,31.90
2022-10-22T11:56:27.465Z,30.40
2022-10-22T11:58:56.084Z,36.28
2022-10-22T12:01:24.502Z,36.72
2022-10-22T12:03:54.541Z,43.97
2022-10-22T12:06:27.670Z,28.08
2022-10-22T12:09:01.926Z,26.45
2022-10-22T12:11:38.211Z,42.90
2022-10-22T12:14:30.291Z,54.50
2022-10-22T12:17:04.683Z,51.55
2022-10-22T12:19:35.434Z,37.25
2022-10-22T12:22:07.030Z,53.97
2022-10-22T12:24:37.211Z,33.08
2022-10-22T12:27:26.051Z,26.75
2022-10-22T12:29:59.833Z,27.90
2022-10-22T12:32:35.883Z,26.85
2022-10-22T12:35:21.596Z,21.61
2022-10-22T12:37:51.232Z,28.95
2022-10-22T12:40:20.995Z,22.40
2022-10-22T12:42:59.962Z,30.48
2022-10-22T12:45:32.161Z,30.67
2022-10-22T12:48:02.194Z,31.30
2022-10-22T12:50:40.185Z,27.63
2022-10-22T12:53:14.859Z,31.45
2022-10-22T12:55:45.886Z,34.50
2022-10-22T12:58:32.263Z,32.45
2022-10-22T13:01:02.589Z,27.40
2022-10-22T13:03:40.068Z,31.23
2022-10-22T13:06:15.097Z,28.13
2022-10-22T13:08:44.450Z,26.13
2022-10-22T13:11:22.729Z,22.90
2022-10-22T13:13:51.201Z,30.15
2022-10-22T13:16:28.183Z,29.60
2022-10-22T13:19:03.842Z,35.33
2022-10-22T13:21:38.323Z,31.33
2022-10-22T13:24:21.736Z,33.97
2022-10-22T13:27:00.262Z,31.88
2022-10-22T13:29:31.888Z,35.70
2022-10-22T13:32:06.630Z,30.52
2022-10-22T13:34:36.746Z,41.35
2022-10-22T13:37:14.746Z,30.63
2022-10-22T13:39:43.112Z,31.60
2022-10-22T13:42:16.550Z,48.85
2022-10-22T13:44:45.130Z,33.38
2022-10-22T13:47:28.384Z,29.35
2022-10-22T13:49:58.869Z,37.38
2022-10-22T13:52:46.803Z,23.08
2022-10-22T13:55:23.141Z,40.65
2022-10-22T13:57:52.044Z,36.05
2022-10-22T14:00:25.472Z,42.25
2022-10-22T14:02:57.452Z,35.30
2022-10-22T14:05:25.878Z,17.45
2022-10-22T14:07:55.491Z,36.08
2022-10-22T14:10:33.521Z,34.25
2022-10-22T14:13:01.941Z,51.10
2022-10-22T14:15:30.279Z,47.22
2022-10-22T14:18:01.516Z,23.05
2022-10-22T14:20:42.325Z,30.02
2022-10-22T14:23:19.666Z,41.22
2022-10-22T14:28:26.876Z,29.95
2022-10-22T14:30:55.761Z,26.55
2022-10-22T14:33:32.046Z,25.40
2022-10-22T14:36:01.235Z,25.73
2022-10-22T14:38:30.730Z,23.60
2022-10-22T14:41:00.382Z,21.63
2022-10-22T14:43:31.695Z,22.98
2022-10-22T14:46:05.384Z,26.42
2022-10-22T14:48:33.761Z,54.47
2022-10-22T14:51:07.293Z,28.45
2022-10-22T14:53:35.892Z,46.78
2022-10-22T14:56:04.378Z,35.85
2022-10-22T14:58:42.789Z,39.70
2022-10-22T15:01:11.279Z,47.25
2022-10-22T15:03:39.712Z,77.60
2022-10-22T15:06:08.170Z,22.38
2022-10-22T15:08:37.823Z,23.60
2022-10-22T15:11:08.438Z,39.05
2022-10-22T15:13:37.018Z,27.58
2022-10-22T15:16:11.227Z,28.30
2022-10-22T15:18:43.738Z,34.30
2022-10-22T15:21:16.570Z,27.80
2022-10-22T15:23:45.005Z,60.58
2022-10-22T15:26:13.944Z,28.88
2022-10-22T15:28:47.521Z,25.90
2022-10-22T15:31:16.626Z,26.42
2022-10-22T15:33:45.417Z,27.90
2022-10-22T15:36:17.005Z,23.08
2022-10-22T15:38:46.279Z,24.67
2022-10-22T15:41:17.547Z,26.05
2022-10-22T15:43:55.592Z,26.15
2022-10-22T15:46:26.081Z,30.70
2022-10-22T15:48:54.484Z,26.27
2022-10-22T15:51:22.924Z,25.30
2022-10-22T15:53:52.939Z,25.00
2022-10-22T15:56:26.996Z,21.40
2022-10-22T15:58:56.464Z,27.80
2022-10-22T16:01:25.710Z,20.00
2022-10-22T16:04:00.436Z,23.77
2022-10-22T16:06:29.765Z,24.98
2022-10-22T16:09:04.912Z,22.52
2022-10-22T16:11:40.846Z,28.30
2022-10-22T16:14:10.692Z,26.90
2022-10-22T16:16:43.206Z,30.23
2022-10-22T16:19:22.383Z,30.02
2022-10-22T16:21:51.809Z,21.33
2022-10-22T16:24:20.930Z,20.98
2022-10-22T16:26:49.602Z,20.77
2022-10-22T16:29:18.073Z,22.38
2022-10-22T16:31:47.169Z,28.50
2022-10-22T16:34:15.556Z,17.35
2022-10-22T16:36:44.753Z,22.02
2022-10-22T16:39:13.196Z,23.42
2022-10-22T16:41:41.600Z,18.48
2022-10-22T16:44:10.487Z,26.15
2022-10-22T16:46:38.961Z,25.80
2022-10-22T16:49:12.189Z,24.45
2022-10-22T16:51:40.609Z,23.65
2022-10-22T16:54:11.452Z,25.25
2022-10-22T16:56:40.949Z,19.63
2022-10-22T16:59:09.429Z,15.85
2022-10-22T17:01:41.199Z,13.40
2022-10-22T17:04:10.460Z,17.85
2022-10-22T17:06:38.896Z,20.67
2022-10-22T17:09:07.736Z,18.63
2022-10-22T17:11:38.168Z,16.63
2022-10-22T17:14:08.699Z,16.42
2022-10-22T17:16:37.143Z,17.48
2022-10-22T17:19:05.817Z,11.93
2022-10-22T17:21:34.435Z,17.75
2022-10-22T17:24:02.980Z,17.85
2022-10-22T17:26:33.590Z,19.20
2022-10-22T17:29:02.121Z,19.17
2022-10-22T17:31:35.944Z,14.88
2022-10-22T17:34:08.346Z,14.85
2022-10-22T17:36:42.662Z,16.70
2022-10-22T17:39:12.360Z,9.50
2022-10-22T17:41:40.754Z,11.35
2022-10-22T17:44:09.598Z,13.38
2022-10-22T17:46:38.127Z,11.57
2022-10-22T17:49:08.538Z,7.03
2022-10-22T17:51:37.238Z,12.23
2022-10-22T17:54:08.828Z,7.50
2022-10-22T17:56:40.483Z,7.55
2022-10-22T17:59:20.269Z,9.68
2022-10-22T18:01:49.194Z,11.13
2022-10-22T18:04:18.840Z,10.02
2022-10-22T18:06:48.779Z,8.15
2022-10-22T18:09:19.089Z,6.30
2022-10-22T18:11:51.719Z,7.78
2022-10-22T18:14:25.239Z,7.93
2022-10-22T18:16:54.932Z,9.40
2022-10-22T18:19:24.867Z,6.53
2022-10-22T18:21:53.254Z,5.68
2022-10-22T18:24:21.720Z,4.68
2022-10-22T18:26:50.666Z,4.68
2022-10-22T18:29:20.121Z,5.75
2022-10-22T18:31:48.921Z,4.63
2022-10-22T18:34:20.246Z,2.90
2022-10-22T18:36:51.425Z,3.70
2022-10-22T18:39:19.945Z,3.13
2022-10-22T18:41:48.372Z,2.60
2022-10-22T18:44:17.158Z,2.90
2022-10-22T18:46:45.755Z,4.03
2022-10-22T18:49:16.757Z,2.88
2022-10-22T18:51:46.801Z,4.82
2022-10-22T18:54:23.986Z,3.53
2022-10-22T18:56:54.866Z,2.92
2022-10-22T18:59:34.649Z,3.80
2022-10-22T19:02:03.127Z,2.33
2022-10-22T19:04:37.213Z,3.05
2022-10-22T19:07:06.159Z,3.40
2022-10-22T19:09:34.812Z,3.42
2022-10-22T19:12:03.194Z,3.42
2022-10-22T19:14:42.114Z,3.70
2022-10-22T19:17:10.615Z,3.72
2022-10-22T19:19:39.084Z,5.03
2022-10-22T19:22:11.706Z,4.57
2022-10-22T19:24:40.317Z,5.70
2022-10-22T19:27:09.036Z,5.47
2022-10-22T19:29:37.539Z,5.38
2022-10-22T19:32:17.119Z,6.47
2022-10-22T19:34:50.870Z,6.15
2022-10-22T19:37:28.643Z,6.50
2022-10-22T19:39:57.023Z,7.40
2022-10-22T19:42:27.427Z,5.53
2022-10-22T19:45:01.418Z,7.60
2022-10-22T19:47:32.532Z,8.10
2022-10-22T19:50:06.003Z,5.00
2022-10-22T19:52:34.623Z,6.70
2022-10-22T19:55:03.141Z,5.68
2022-10-22T19:57:31.594Z,7.18
2022-10-22T20:00:00.080Z,4.80
2022-10-22T20:02:30.588Z,4.63
2022-10-22T20:04:59.586Z,4.72
2022-10-22T20:07:38.082Z,4.90
2022-10-22T20:10:12.401Z,4.18
2022-10-22T20:12:52.981Z,5.90
2022-10-22T20:15:22.011Z,4.53
2022-10-22T20:18:00.402Z,5.28
2022-10-22T20:20:33.900Z,6.10
2022-10-22T20:23:09.007Z,6.97
2022-10-22T20:25:48.966Z,7.75
2022-10-22T20:28:17.543Z,6.00
2022-10-22T20:30:46.881Z,5.03
2022-10-22T20:33:16.667Z,4.25
2022-10-22T20:35:45.358Z,4.07
2022-10-22T20:38:15.048Z,3.42
2022-10-22T20:40:49.263Z,3.97
2022-10-22T20:43:22.893Z,3.88
2022-10-22T20:45:51.874Z,3.33
2022-10-22T20:48:20.304Z,3.20
2022-10-22T20:50:54.577Z,5.03
2022-10-22T20:53:23.523Z,4.75
2022-10-22T20:56:01.916Z,3.63
2022-10-22T20:58:35.217Z,3.58
2022-10-22T21:01:10.322Z,4.32
2022-10-22T21:03:49.592Z,3.20
2022-10-22T21:06:18.092Z,3.97
2022-10-22T21:08:51.986Z,3.47
2022-10-22T21:11:20.894Z,3.97
2022-10-22T21:13:49.576Z,4.75
2022-10-22T21:16:19.037Z,3.97
2022-10-22T21:18:47.997Z,4.40
2022-10-22T21:21:18.026Z,3.95
2022-10-22T21:23:46.675Z,3.78
2022-10-22T21:26:15.230Z,4.75
2022-10-22T21:28:43.583Z,5.63
2022-10-22T21:31:19.044Z,5.50
2022-10-22T21:33:47.702Z,5.80
2022-10-22T21:36:25.960Z,5.78
2022-10-22T21:38:54.463Z,7.00
2022-10-22T21:41:23.805Z,5.93
2022-10-22T21:43:52.581Z,4.95
2022-10-22T21:46:22.503Z,4.88
2022-10-22T21:48:55.411Z,5.13
2022-10-22T21:51:29.797Z,5.53
2022-10-22T21:53:58.429Z,4.90
2022-10-22T21:56:32.732Z,4.90
2022-10-22T21:59:01.997Z,3.50
2022-10-22T22:01:30.508Z,4.30
2022-10-22T22:03:59.174Z,4.75
2022-10-22T22:06:30.871Z,5.18
2022-10-22T22:09:06.859Z,7.43
2022-10-22T22:11:44.594Z,9.32
2022-10-22T22:14:13.703Z,10.05
2022-10-22T22:16:42.074Z,10.95
2022-10-22T22:19:10.697Z,9.60
2022-10-22T22:21:40.319Z,8.45
2022-10-22T22:24:10.182Z,9.40
2022-10-22T22:26:38.750Z,10.23
2022-10-22T22:29:17.067Z,9.90
2022-10-22T22:31:46.442Z,9.80
2022-10-22T22:34:16.771Z,8.48
2022-10-22T22:36:46.617Z,8.18
2022-10-22T22:39:17.214Z,8.20
2022-10-22T22:41:45.965Z,8.02
2022-10-22T22:44:16.890Z,6.75
2022-10-22T22:46:45.364Z,6.63
2022-10-22T22:49:18.888Z,7.57
2022-10-22T22:51:47.272Z,7.32
2022-10-22T22:54:15.583Z,7.60
2022-10-22T22:56:54.004Z,6.57
2022-10-22T22:59:23.414Z,5.03
2022-10-22T23:01:51.898Z,5.45
2022-10-22T23:04:24.123Z,4.28
2022-10-22T23:06:52.756Z,5.15
2022-10-22T23:11:54.479Z,4.10
2022-10-22T23:14:33.388Z,3.85
2022-10-22T23:17:01.832Z,3.50
2022-10-22T23:19:30.248Z,3.58
2022-10-22T23:21:58.645Z,2.80
2022-10-22T23:24:28.265Z,3.47
2022-10-22T23:27:00.336Z,3.92
2022-10-22T23:29:29.775Z,3.00
2022-10-22T23:32:02.213Z,2.50
2022-10-22T23:34:31.678Z,2.80
2022-10-22T23:37:00.358Z,2.63
2022-10-22T23:39:29.086Z,3.08
2022-10-22T23:41:58.053Z,2.72
2022-10-22T23:44:26.553Z,2.50
2022-10-22T23:46:55.626Z,2.42
2022-10-22T23:49:23.958Z,2.60
2022-10-22T23:51:52.350Z,2.30
2022-10-22T23:54:20.716Z,2.47
2022-10-22T23:56:49.076Z,2.35
2022-10-22T23:59:17.519Z,2.70
